sensor_id;sensor_type;location;lat;lon;timestamp;P1;durP1;ratioP1;P2;durP2;ratioP2
46290;SDS011;32023;44.444;26.006;2023-02-05T00:00:06;6.20;;;3.50;;
46290;SDS011;32023;44.444;26.006;2023-02-05T00:02:33;5.60;;;3.42;;
46290;SDS011;32023;44.444;26.006;2023-02-05T00:05:00;5.53;;;3.95;;
46290;SDS011;32023;44.444;26.006;2023-02-05T00:07:26;6.32;;;4.10;;
46290;SDS011;32023;44.444;26.006;2023-02-05T00:09:52;5.82;;;3.60;;
46290;SDS011;32023;44.444;26.006;2023-02-05T00:12:19;6.28;;;3.83;;
46290;SDS011;32023;44.444;26.006;2023-02-05T00:14:45;8.25;;;4.60;;
46290;SDS011;32023;44.444;26.006;2023-02-05T00:17:12;7.22;;;4.63;;
46290;SDS011;32023;44.444;26.006;2023-02-05T00:19:38;4.30;;;2.92;;
46290;SDS011;32023;44.444;26.006;2023-02-05T00:22:06;7.32;;;4.13;;
46290;SDS011;32023;44.444;26.006;2023-02-05T00:24:34;6.90;;;4.30;;
46290;SDS011;32023;44.444;26.006;2023-02-05T00:27:14;5.85;;;4.28;;
46290;SDS011;32023;44.444;26.006;2023-02-05T00:29:44;5.95;;;4.10;;
46290;SDS011;32023;44.444;26.006;2023-02-05T00:32:10;6.60;;;3.78;;
46290;SDS011;32023;44.444;26.006;2023-02-05T00:34:36;4.78;;;3.65;;
46290;SDS011;32023;44.444;26.006;2023-02-05T00:40:16;4.78;;;3.05;;
46290;SDS011;32023;44.444;26.006;2023-02-05T00:45:41;4.30;;;2.88;;
46290;SDS011;32023;44.444;26.006;2023-02-05T00:48:11;4.05;;;2.92;;
46290;SDS011;32023;44.444;26.006;2023-02-05T00:50:37;3.75;;;2.78;;
46290;SDS011;32023;44.444;26.006;2023-02-05T00:53:04;4.25;;;2.80;;
46290;SDS011;32023;44.444;26.006;2023-02-05T00:55:31;4.03;;;2.42;;
46290;SDS011;32023;44.444;26.006;2023-02-05T00:57:57;2.40;;;1.50;;
46290;SDS011;32023;44.444;26.006;2023-02-05T01:00:25;5.15;;;3.15;;
46290;SDS011;32023;44.444;26.006;2023-02-05T01:02:52;4.80;;;3.05;;
46290;SDS011;32023;44.444;26.006;2023-02-05T01:05:21;5.68;;;3.80;;
46290;SDS011;32023;44.444;26.006;2023-02-05T01:07:48;5.90;;;3.47;;
46290;SDS011;32023;44.444;26.006;2023-02-05T01:10:14;5.40;;;3.17;;
46290;SDS011;32023;44.444;26.006;2023-02-05T01:12:41;3.33;;;2.55;;
46290;SDS011;32023;44.444;26.006;2023-02-05T01:15:08;5.85;;;3.47;;
46290;SDS011;32023;44.444;26.006;2023-02-05T01:22:45;3.10;;;2.25;;
46290;SDS011;32023;44.444;26.006;2023-02-05T01:25:12;2.22;;;1.90;;
46290;SDS011;32023;44.444;26.006;2023-02-05T01:27:38;2.78;;;2.40;;
46290;SDS011;32023;44.444;26.006;2023-02-05T01:30:07;4.07;;;2.33;;
46290;SDS011;32023;44.444;26.006;2023-02-05T01:35:06;4.50;;;2.40;;
46290;SDS011;32023;44.444;26.006;2023-02-05T01:37:37;2.80;;;2.35;;
46290;SDS011;32023;44.444;26.006;2023-02-05T01:40:04;3.83;;;2.90;;
46290;SDS011;32023;44.444;26.006;2023-02-05T01:42:31;3.00;;;2.10;;
46290;SDS011;32023;44.444;26.006;2023-02-05T01:47:49;6.88;;;2.60;;
46290;SDS011;32023;44.444;26.006;2023-02-05T01:50:19;7.03;;;2.50;;
46290;SDS011;32023;44.444;26.006;2023-02-05T01:55:19;3.47;;;2.42;;
46290;SDS011;32023;44.444;26.006;2023-02-05T01:57:46;4.72;;;2.30;;
46290;SDS011;32023;44.444;26.006;2023-02-05T02:00:14;3.33;;;2.28;;
46290;SDS011;32023;44.444;26.006;2023-02-05T02:02:40;1.52;;;1.10;;
46290;SDS011;32023;44.444;26.006;2023-02-05T02:05:09;4.03;;;2.17;;
46290;SDS011;32023;44.444;26.006;2023-02-05T02:07:38;3.83;;;2.20;;
46290;SDS011;32023;44.444;26.006;2023-02-05T02:10:06;4.15;;;2.70;;
46290;SDS011;32023;44.444;26.006;2023-02-05T02:12:37;4.65;;;1.95;;
46290;SDS011;32023;44.444;26.006;2023-02-05T02:15:09;1.80;;;1.42;;
46290;SDS011;32023;44.444;26.006;2023-02-05T02:17:39;2.50;;;1.75;;
46290;SDS011;32023;44.444;26.006;2023-02-05T02:30:43;2.53;;;1.88;;
46290;SDS011;32023;44.444;26.006;2023-02-05T02:33:19;3.78;;;2.05;;
46290;SDS011;32023;44.444;26.006;2023-02-05T02:35:56;3.63;;;1.83;;
46290;SDS011;32023;44.444;26.006;2023-02-05T02:38:38;1.92;;;1.75;;
46290;SDS011;32023;44.444;26.006;2023-02-05T02:41:13;3.90;;;1.88;;
46290;SDS011;32023;44.444;26.006;2023-02-05T02:44:08;3.97;;;1.77;;
46290;SDS011;32023;44.444;26.006;2023-02-05T02:46:44;2.80;;;1.67;;
46290;SDS011;32023;44.444;26.006;2023-02-05T02:52:19;2.90;;;1.85;;
46290;SDS011;32023;44.444;26.006;2023-02-05T02:54:48;2.53;;;1.60;;
46290;SDS011;32023;44.444;26.006;2023-02-05T02:57:18;1.65;;;1.30;;
46290;SDS011;32023;44.444;26.006;2023-02-05T02:59:48;3.38;;;1.55;;
46290;SDS011;32023;44.444;26.006;2023-02-05T03:02:17;1.92;;;1.40;;
46290;SDS011;32023;44.444;26.006;2023-02-05T03:11:10;2.08;;;1.27;;
46290;SDS011;32023;44.444;26.006;2023-02-05T03:13:38;1.88;;;1.48;;
46290;SDS011;32023;44.444;26.006;2023-02-05T03:16:06;2.15;;;1.17;;
46290;SDS011;32023;44.444;26.006;2023-02-05T03:18:40;5.15;;;1.40;;
46290;SDS011;32023;44.444;26.006;2023-02-05T03:21:08;3.47;;;1.60;;
46290;SDS011;32023;44.444;26.006;2023-02-05T03:23:53;1.70;;;1.40;;
46290;SDS011;32023;44.444;26.006;2023-02-05T03:29:08;1.67;;;1.30;;
46290;SDS011;32023;44.444;26.006;2023-02-05T03:34:39;1.00;;;0.95;;
46290;SDS011;32023;44.444;26.006;2023-02-05T03:37:20;1.67;;;1.13;;
46290;SDS011;32023;44.444;26.006;2023-02-05T03:40:29;3.63;;;1.33;;
46290;SDS011;32023;44.444;26.006;2023-02-05T04:00:12;1.20;;;1.10;;
46290;SDS011;32023;44.444;26.006;2023-02-05T04:02:39;2.00;;;1.20;;
46290;SDS011;32023;44.444;26.006;2023-02-05T04:05:06;3.70;;;1.30;;
46290;SDS011;32023;44.444;26.006;2023-02-05T04:07:33;2.08;;;1.13;;
46290;SDS011;32023;44.444;26.006;2023-02-05T04:09:59;2.58;;;1.00;;
46290;SDS011;32023;44.444;26.006;2023-02-05T04:12:25;2.15;;;1.20;;
46290;SDS011;32023;44.444;26.006;2023-02-05T04:14:52;3.28;;;1.42;;
46290;SDS011;32023;44.444;26.006;2023-02-05T04:17:18;2.88;;;1.65;;
46290;SDS011;32023;44.444;26.006;2023-02-05T04:19:45;2.50;;;1.27;;
46290;SDS011;32023;44.444;26.006;2023-02-05T04:22:11;1.65;;;1.33;;
46290;SDS011;32023;44.444;26.006;2023-02-05T04:24:37;5.63;;;1.60;;
46290;SDS011;32023;44.444;26.006;2023-02-05T04:27:04;1.90;;;1.33;;
46290;SDS011;32023;44.444;26.006;2023-02-05T04:29:30;1.92;;;1.10;;
46290;SDS011;32023;44.444;26.006;2023-02-05T04:31:58;1.85;;;1.20;;
46290;SDS011;32023;44.444;26.006;2023-02-05T04:34:24;4.50;;;1.45;;
46290;SDS011;32023;44.444;26.006;2023-02-05T04:36:50;2.55;;;1.25;;
46290;SDS011;32023;44.444;26.006;2023-02-05T04:41:56;3.00;;;1.38;;
46290;SDS011;32023;44.444;26.006;2023-02-05T04:44:23;3.83;;;1.38;;
46290;SDS011;32023;44.444;26.006;2023-02-05T04:46:49;1.77;;;1.40;;
46290;SDS011;32023;44.444;26.006;2023-02-05T04:49:17;2.20;;;1.55;;
46290;SDS011;32023;44.444;26.006;2023-02-05T04:51:43;2.20;;;1.40;;
46290;SDS011;32023;44.444;26.006;2023-02-05T04:54:10;4.15;;;1.65;;
46290;SDS011;32023;44.444;26.006;2023-02-05T04:59:10;2.67;;;1.55;;
46290;SDS011;32023;44.444;26.006;2023-02-05T05:01:39;1.75;;;1.50;;
46290;SDS011;32023;44.444;26.006;2023-02-05T05:04:20;3.78;;;1.50;;
46290;SDS011;32023;44.444;26.006;2023-02-05T05:09:24;2.85;;;1.52;;
46290;SDS011;32023;44.444;26.006;2023-02-05T05:11:51;2.45;;;1.58;;
46290;SDS011;32023;44.444;26.006;2023-02-05T05:14:17;2.53;;;1.63;;
46290;SDS011;32023;44.444;26.006;2023-02-05T05:16:45;2.72;;;1.65;;
46290;SDS011;32023;44.444;26.006;2023-02-05T05:19:12;2.83;;;1.85;;
46290;SDS011;32023;44.444;26.006;2023-02-05T05:21:38;7.72;;;1.58;;
46290;SDS011;32023;44.444;26.006;2023-02-05T05:24:05;6.97;;;1.70;;
46290;SDS011;32023;44.444;26.006;2023-02-05T05:26:31;5.47;;;1.88;;
46290;SDS011;32023;44.444;26.006;2023-02-05T05:29:06;3.50;;;2.22;;
46290;SDS011;32023;44.444;26.006;2023-02-05T05:31:32;3.30;;;1.80;;
46290;SDS011;32023;44.444;26.006;2023-02-05T05:36:54;4.15;;;1.92;;
46290;SDS011;32023;44.444;26.006;2023-02-05T05:39:20;3.30;;;2.00;;
46290;SDS011;32023;44.444;26.006;2023-02-05T05:42:05;2.63;;;1.98;;
46290;SDS011;32023;44.444;26.006;2023-02-05T05:44:52;2.47;;;1.77;;
46290;SDS011;32023;44.444;26.006;2023-02-05T05:47:18;2.15;;;1.52;;
46290;SDS011;32023;44.444;26.006;2023-02-05T05:49:53;2.25;;;1.67;;
46290;SDS011;32023;44.444;26.006;2023-02-05T05:52:19;2.60;;;1.70;;
46290;SDS011;32023;44.444;26.006;2023-02-05T05:54:46;5.35;;;1.80;;
46290;SDS011;32023;44.444;26.006;2023-02-05T05:57:18;3.83;;;1.90;;
46290;SDS011;32023;44.444;26.006;2023-02-05T05:59:45;3.38;;;1.85;;
46290;SDS011;32023;44.444;26.006;2023-02-05T06:02:11;2.90;;;1.90;;
46290;SDS011;32023;44.444;26.006;2023-02-05T06:04:37;2.88;;;1.92;;
46290;SDS011;32023;44.444;26.006;2023-02-05T06:07:04;3.78;;;2.40;;
46290;SDS011;32023;44.444;26.006;2023-02-05T06:09:30;3.95;;;1.98;;
46290;SDS011;32023;44.444;26.006;2023-02-05T06:14:45;2.63;;;1.98;;
46290;SDS011;32023;44.444;26.006;2023-02-05T06:17:12;3.80;;;2.15;;
46290;SDS011;32023;44.444;26.006;2023-02-05T06:19:39;3.58;;;2.10;;
46290;SDS011;32023;44.444;26.006;2023-02-05T06:22:17;5.28;;;2.20;;
46290;SDS011;32023;44.444;26.006;2023-02-05T06:24:44;3.88;;;2.38;;
46290;SDS011;32023;44.444;26.006;2023-02-05T06:27:14;5.32;;;2.55;;
46290;SDS011;32023;44.444;26.006;2023-02-05T06:29:40;4.47;;;2.25;;
46290;SDS011;32023;44.444;26.006;2023-02-05T06:32:07;3.10;;;1.88;;
46290;SDS011;32023;44.444;26.006;2023-02-05T06:34:33;5.32;;;2.53;;
46290;SDS011;32023;44.444;26.006;2023-02-05T06:37:02;3.80;;;2.10;;
46290;SDS011;32023;44.444;26.006;2023-02-05T06:39:28;5.63;;;2.95;;
46290;SDS011;32023;44.444;26.006;2023-02-05T06:41:55;4.43;;;2.40;;
46290;SDS011;32023;44.444;26.006;2023-02-05T06:44:21;5.18;;;2.50;;
46290;SDS011;32023;44.444;26.006;2023-02-05T06:46:48;5.32;;;2.33;;
46290;SDS011;32023;44.444;26.006;2023-02-05T06:49:14;5.28;;;2.47;;
46290;SDS011;32023;44.444;26.006;2023-02-05T06:51:44;4.72;;;2.47;;
46290;SDS011;32023;44.444;26.006;2023-02-05T06:54:10;2.80;;;2.00;;
46290;SDS011;32023;44.444;26.006;2023-02-05T06:56:37;3.67;;;2.17;;
46290;SDS011;32023;44.444;26.006;2023-02-05T06:59:06;4.43;;;2.17;;
46290;SDS011;32023;44.444;26.006;2023-02-05T07:01:33;5.70;;;2.33;;
46290;SDS011;32023;44.444;26.006;2023-02-05T07:03:59;3.97;;;2.47;;
46290;SDS011;32023;44.444;26.006;2023-02-05T07:06:27;5.18;;;2.65;;
46290;SDS011;32023;44.444;26.006;2023-02-05T07:08:54;4.93;;;2.28;;
46290;SDS011;32023;44.444;26.006;2023-02-05T07:11:25;4.25;;;2.28;;
46290;SDS011;32023;44.444;26.006;2023-02-05T07:13:55;3.20;;;2.30;;
46290;SDS011;32023;44.444;26.006;2023-02-05T07:16:33;5.65;;;2.42;;
46290;SDS011;32023;44.444;26.006;2023-02-05T07:18:59;3.55;;;2.42;;
46290;SDS011;32023;44.444;26.006;2023-02-05T07:21:26;4.18;;;2.50;;
46290;SDS011;32023;44.444;26.006;2023-02-05T07:23:52;8.32;;;2.47;;
46290;SDS011;32023;44.444;26.006;2023-02-05T07:26:39;4.28;;;2.08;;
46290;SDS011;32023;44.444;26.006;2023-02-05T07:29:10;4.93;;;2.35;;
46290;SDS011;32023;44.444;26.006;2023-02-05T07:31:36;3.40;;;2.10;;
46290;SDS011;32023;44.444;26.006;2023-02-05T07:34:03;4.53;;;2.40;;
46290;SDS011;32023;44.444;26.006;2023-02-05T07:36:34;4.82;;;2.13;;
46290;SDS011;32023;44.444;26.006;2023-02-05T07:39:07;3.15;;;2.30;;
46290;SDS011;32023;44.444;26.006;2023-02-05T07:41:40;5.80;;;2.47;;
46290;SDS011;32023;44.444;26.006;2023-02-05T07:44:11;7.63;;;2.92;;
46290;SDS011;32023;44.444;26.006;2023-02-05T07:46:40;6.55;;;3.15;;
46290;SDS011;32023;44.444;26.006;2023-02-05T07:49:21;5.47;;;3.67;;
46290;SDS011;32023;44.444;26.006;2023-02-05T07:55:07;9.10;;;2.60;;
46290;SDS011;32023;44.444;26.006;2023-02-05T07:57:37;4.00;;;2.30;;
46290;SDS011;32023;44.444;26.006;2023-02-05T08:02:48;4.35;;;3.08;;
46290;SDS011;32023;44.444;26.006;2023-02-05T08:05:16;5.13;;;2.88;;
46290;SDS011;32023;44.444;26.006;2023-02-05T08:10:29;4.28;;;2.40;;
46290;SDS011;32023;44.444;26.006;2023-02-05T08:12:56;3.30;;;2.30;;
46290;SDS011;32023;44.444;26.006;2023-02-05T08:15:33;4.57;;;2.60;;
46290;SDS011;32023;44.444;26.006;2023-02-05T08:18:11;3.88;;;2.47;;
46290;SDS011;32023;44.444;26.006;2023-02-05T08:20:37;5.43;;;2.70;;
46290;SDS011;32023;44.444;26.006;2023-02-05T08:23:06;6.13;;;2.95;;
46290;SDS011;32023;44.444;26.006;2023-02-05T08:25:41;5.30;;;2.83;;
46290;SDS011;32023;44.444;26.006;2023-02-05T08:28:11;4.63;;;2.30;;
46290;SDS011;32023;44.444;26.006;2023-02-05T08:30:39;3.85;;;2.35;;
46290;SDS011;32023;44.444;26.006;2023-02-05T08:36:02;3.53;;;2.20;;
46290;SDS011;32023;44.444;26.006;2023-02-05T08:38:30;2.60;;;2.03;;
46290;SDS011;32023;44.444;26.006;2023-02-05T08:40:56;4.85;;;2.00;;
46290;SDS011;32023;44.444;26.006;2023-02-05T08:43:36;3.38;;;1.75;;
46290;SDS011;32023;44.444;26.006;2023-02-05T08:46:11;5.03;;;2.25;;
46290;SDS011;32023;44.444;26.006;2023-02-05T08:48:48;7.05;;;1.55;;
46290;SDS011;32023;44.444;26.006;2023-02-05T08:51:15;2.75;;;1.70;;
46290;SDS011;32023;44.444;26.006;2023-02-05T08:53:43;2.58;;;1.60;;
46290;SDS011;32023;44.444;26.006;2023-02-05T08:56:19;2.15;;;1.70;;
46290;SDS011;32023;44.444;26.006;2023-02-05T08:58:49;4.45;;;2.00;;
46290;SDS011;32023;44.444;26.006;2023-02-05T09:01:16;4.28;;;1.92;;
46290;SDS011;32023;44.444;26.006;2023-02-05T09:03:43;4.88;;;2.45;;
46290;SDS011;32023;44.444;26.006;2023-02-05T09:06:13;4.00;;;2.45;;
46290;SDS011;32023;44.444;26.006;2023-02-05T09:08:42;4.97;;;2.65;;
46290;SDS011;32023;44.444;26.006;2023-02-05T09:11:09;3.75;;;2.25;;
46290;SDS011;32023;44.444;26.006;2023-02-05T09:13:42;4.13;;;2.80;;
46290;SDS011;32023;44.444;26.006;2023-02-05T09:16:14;4.93;;;2.10;;
46290;SDS011;32023;44.444;26.006;2023-02-05T09:18:40;2.50;;;1.55;;
46290;SDS011;32023;44.444;26.006;2023-02-05T09:21:09;4.80;;;2.10;;
46290;SDS011;32023;44.444;26.006;2023-02-05T09:23:40;5.55;;;2.80;;
46290;SDS011;32023;44.444;26.006;2023-02-05T09:26:06;4.40;;;2.78;;
46290;SDS011;32023;44.444;26.006;2023-02-05T09:28:35;5.45;;;2.55;;
46290;SDS011;32023;44.444;26.006;2023-02-05T09:33:50;3.60;;;1.98;;
46290;SDS011;32023;44.444;26.006;2023-02-05T09:36:26;4.25;;;1.98;;
46290;SDS011;32023;44.444;26.006;2023-02-05T09:38:56;1.77;;;1.45;;
46290;SDS011;32023;44.444;26.006;2023-02-05T09:41:31;1.58;;;1.33;;
46290;SDS011;32023;44.444;26.006;2023-02-05T09:52:28;4.05;;;2.42;;
46290;SDS011;32023;44.444;26.006;2023-02-05T09:55:02;2.60;;;2.05;;
46290;SDS011;32023;44.444;26.006;2023-02-05T09:57:57;9.70;;;2.70;;
46290;SDS011;32023;44.444;26.006;2023-02-05T10:06:40;6.72;;;3.78;;
46290;SDS011;32023;44.444;26.006;2023-02-05T10:25:33;4.20;;;3.10;;
46290;SDS011;32023;44.444;26.006;2023-02-05T10:41:05;9.27;;;4.32;;
46290;SDS011;32023;44.444;26.006;2023-02-05T10:43:52;3.90;;;2.60;;
46290;SDS011;32023;44.444;26.006;2023-02-05T10:46:39;3.63;;;1.88;;
46290;SDS011;32023;44.444;26.006;2023-02-05T10:49:25;3.15;;;1.92;;
46290;SDS011;32023;44.444;26.006;2023-02-05T10:54:55;8.32;;;4.68;;
46290;SDS011;32023;44.444;26.006;2023-02-05T10:57:27;4.88;;;3.08;;
46290;SDS011;32023;44.444;26.006;2023-02-05T11:00:02;3.30;;;2.40;;
46290;SDS011;32023;44.444;26.006;2023-02-05T11:02:40;3.60;;;2.53;;
46290;SDS011;32023;44.444;26.006;2023-02-05T11:05:29;13.88;;;6.70;;
46290;SDS011;32023;44.444;26.006;2023-02-05T11:14:31;4.40;;;3.03;;
46290;SDS011;32023;44.444;26.006;2023-02-05T11:20:02;8.60;;;3.80;;
46290;SDS011;32023;44.444;26.006;2023-02-05T11:22:52;5.90;;;3.53;;
46290;SDS011;32023;44.444;26.006;2023-02-05T11:26:19;6.45;;;4.38;;
46290;SDS011;32023;44.444;26.006;2023-02-05T11:28:52;6.95;;;4.20;;
46290;SDS011;32023;44.444;26.006;2023-02-05T11:31:33;7.70;;;5.30;;
46290;SDS011;32023;44.444;26.006;2023-02-05T11:37:09;8.70;;;5.22;;
46290;SDS011;32023;44.444;26.006;2023-02-05T11:39:49;5.50;;;3.40;;
46290;SDS011;32023;44.444;26.006;2023-02-05T11:42:35;4.65;;;3.28;;
46290;SDS011;32023;44.444;26.006;2023-02-05T11:45:02;2.95;;;2.60;;
46290;SDS011;32023;44.444;26.006;2023-02-05T11:47:39;4.47;;;2.55;;
46290;SDS011;32023;44.444;26.006;2023-02-05T11:50:17;4.03;;;2.70;;
46290;SDS011;32023;44.444;26.006;2023-02-05T11:52:55;2.83;;;2.08;;
46290;SDS011;32023;44.444;26.006;2023-02-05T11:55:39;3.92;;;2.50;;
46290;SDS011;32023;44.444;26.006;2023-02-05T11:58:33;4.45;;;2.22;;
46290;SDS011;32023;44.444;26.006;2023-02-05T12:01:42;4.10;;;2.40;;
46290;SDS011;32023;44.444;26.006;2023-02-05T12:03:59;2.85;;;2.28;;
46290;SDS011;32023;44.444;26.006;2023-02-05T12:07:01;4.90;;;3.20;;
46290;SDS011;32023;44.444;26.006;2023-02-05T12:09:36;4.50;;;2.63;;
46290;SDS011;32023;44.444;26.006;2023-02-05T12:20:50;3.90;;;2.55;;
46290;SDS011;32023;44.444;26.006;2023-02-05T12:28:58;2.70;;;2.00;;
46290;SDS011;32023;44.444;26.006;2023-02-05T12:37:32;3.40;;;2.40;;
46290;SDS011;32023;44.444;26.006;2023-02-05T12:59:59;8.35;;;4.05;;
46290;SDS011;32023;44.444;26.006;2023-02-05T13:05:29;7.10;;;3.30;;
46290;SDS011;32023;44.444;26.006;2023-02-05T13:11:21;6.97;;;3.78;;
46290;SDS011;32023;44.444;26.006;2023-02-05T13:19:36;7.65;;;4.47;;
46290;SDS011;32023;44.444;26.006;2023-02-05T13:22:26;5.82;;;3.70;;
46290;SDS011;32023;44.444;26.006;2023-02-05T13:28:43;8.25;;;5.45;;
46290;SDS011;32023;44.444;26.006;2023-02-05T13:31:23;17.33;;;8.27;;
46290;SDS011;32023;44.444;26.006;2023-02-05T13:33:59;15.75;;;8.02;;
46290;SDS011;32023;44.444;26.006;2023-02-05T13:36:34;12.30;;;6.23;;
46290;SDS011;32023;44.444;26.006;2023-02-05T13:45:20;10.95;;;4.18;;
46290;SDS011;32023;44.444;26.006;2023-02-05T13:51:42;27.75;;;10.93;;
46290;SDS011;32023;44.444;26.006;2023-02-05T14:00:03;10.93;;;5.20;;
46290;SDS011;32023;44.444;26.006;2023-02-05T14:05:06;11.23;;;5.45;;
46290;SDS011;32023;44.444;26.006;2023-02-05T14:07:42;12.68;;;6.15;;
46290;SDS011;32023;44.444;26.006;2023-02-05T14:10:26;11.43;;;5.82;;
46290;SDS011;32023;44.444;26.006;2023-02-05T14:15:58;9.60;;;5.07;;
46290;SDS011;32023;44.444;26.006;2023-02-05T14:23:57;15.10;;;5.63;;
46290;SDS011;32023;44.444;26.006;2023-02-05T14:26:45;9.38;;;5.25;;
46290;SDS011;32023;44.444;26.006;2023-02-05T14:43:34;9.35;;;5.60;;
46290;SDS011;32023;44.444;26.006;2023-02-05T14:46:21;7.18;;;4.63;;
46290;SDS011;32023;44.444;26.006;2023-02-05T14:49:18;13.23;;;6.25;;
46290;SDS011;32023;44.444;26.006;2023-02-05T14:51:53;20.23;;;7.03;;
46290;SDS011;32023;44.444;26.006;2023-02-05T14:54:26;9.40;;;5.07;;
46290;SDS011;32023;44.444;26.006;2023-02-05T14:57:27;15.32;;;5.65;;
46290;SDS011;32023;44.444;26.006;2023-02-05T15:03:24;8.20;;;4.38;;
46290;SDS011;32023;44.444;26.006;2023-02-05T15:06:06;6.35;;;3.20;;
46290;SDS011;32023;44.444;26.006;2023-02-05T15:08:51;7.28;;;4.05;;
46290;SDS011;32023;44.444;26.006;2023-02-05T15:20:18;10.25;;;5.78;;
46290;SDS011;32023;44.444;26.006;2023-02-05T15:22:55;11.50;;;5.38;;
46290;SDS011;32023;44.444;26.006;2023-02-05T15:25:38;7.93;;;4.90;;
46290;SDS011;32023;44.444;26.006;2023-02-05T15:33:58;7.68;;;4.32;;
46290;SDS011;32023;44.444;26.006;2023-02-05T15:36:51;6.85;;;3.83;;
46290;SDS011;32023;44.444;26.006;2023-02-05T15:39:46;16.23;;;7.10;;
46290;SDS011;32023;44.444;26.006;2023-02-05T15:42:41;9.35;;;5.88;;
46290;SDS011;32023;44.444;26.006;2023-02-05T15:48:22;7.07;;;4.13;;
46290;SDS011;32023;44.444;26.006;2023-02-05T15:50:52;9.02;;;4.13;;
46290;SDS011;32023;44.444;26.006;2023-02-05T15:53:31;11.32;;;6.00;;
46290;SDS011;32023;44.444;26.006;2023-02-05T15:59:15;22.73;;;9.95;;
46290;SDS011;32023;44.444;26.006;2023-02-05T16:02:03;17.52;;;7.60;;
46290;SDS011;32023;44.444;26.006;2023-02-05T16:05:14;12.30;;;6.95;;
46290;SDS011;32023;44.444;26.006;2023-02-05T16:07:48;15.65;;;7.32;;
46290;SDS011;32023;44.444;26.006;2023-02-05T16:10:31;11.50;;;5.78;;
46290;SDS011;32023;44.444;26.006;2023-02-05T16:22:04;14.13;;;8.00;;
46290;SDS011;32023;44.444;26.006;2023-02-05T16:31:24;12.13;;;5.57;;
46290;SDS011;32023;44.444;26.006;2023-02-05T16:40:37;11.02;;;5.63;;
46290;SDS011;32023;44.444;26.006;2023-02-05T16:43:44;15.07;;;6.35;;
46290;SDS011;32023;44.444;26.006;2023-02-05T16:49:32;18.17;;;7.53;;
46290;SDS011;32023;44.444;26.006;2023-02-05T16:58:37;24.90;;;9.93;;
46290;SDS011;32023;44.444;26.006;2023-02-05T17:01:31;21.35;;;8.70;;
46290;SDS011;32023;44.444;26.006;2023-02-05T17:07:31;14.85;;;7.85;;
46290;SDS011;32023;44.444;26.006;2023-02-05T17:10:16;14.45;;;7.10;;
46290;SDS011;32023;44.444;26.006;2023-02-05T17:19:04;16.40;;;7.60;;
46290;SDS011;32023;44.444;26.006;2023-02-05T17:22:16;16.25;;;7.45;;
46290;SDS011;32023;44.444;26.006;2023-02-05T17:25:01;13.43;;;8.27;;
46290;SDS011;32023;44.444;26.006;2023-02-05T17:34:40;21.23;;;9.10;;
46290;SDS011;32023;44.444;26.006;2023-02-05T17:37:36;15.52;;;8.55;;
46290;SDS011;32023;44.444;26.006;2023-02-05T17:44:20;18.67;;;9.75;;
46290;SDS011;32023;44.444;26.006;2023-02-05T17:47:01;16.70;;;9.05;;
46290;SDS011;32023;44.444;26.006;2023-02-05T17:49:42;16.48;;;8.93;;
46290;SDS011;32023;44.444;26.006;2023-02-05T17:52:23;19.10;;;10.52;;
46290;SDS011;32023;44.444;26.006;2023-02-05T17:54:50;22.90;;;10.93;;
46290;SDS011;32023;44.444;26.006;2023-02-05T18:00:16;18.58;;;10.38;;
46290;SDS011;32023;44.444;26.006;2023-02-05T18:02:45;19.90;;;11.98;;
46290;SDS011;32023;44.444;26.006;2023-02-05T18:05:11;20.33;;;11.80;;
46290;SDS011;32023;44.444;26.006;2023-02-05T18:07:40;19.13;;;11.25;;
46290;SDS011;32023;44.444;26.006;2023-02-05T18:10:27;24.15;;;11.88;;
46290;SDS011;32023;44.444;26.006;2023-02-05T18:13:00;22.48;;;11.40;;
46290;SDS011;32023;44.444;26.006;2023-02-05T18:15:30;26.70;;;13.18;;
46290;SDS011;32023;44.444;26.006;2023-02-05T18:17:59;25.65;;;13.00;;
46290;SDS011;32023;44.444;26.006;2023-02-05T18:20:40;25.02;;;13.98;;
46290;SDS011;32023;44.444;26.006;2023-02-05T18:23:17;49.35;;;20.00;;
46290;SDS011;32023;44.444;26.006;2023-02-05T18:25:43;48.05;;;22.50;;
46290;SDS011;32023;44.444;26.006;2023-02-05T18:38:09;50.65;;;25.45;;
46290;SDS011;32023;44.444;26.006;2023-02-05T18:40:45;46.92;;;25.05;;
46290;SDS011;32023;44.444;26.006;2023-02-05T18:43:17;46.78;;;25.10;;
46290;SDS011;32023;44.444;26.006;2023-02-05T18:46:13;48.75;;;23.67;;
46290;SDS011;32023;44.444;26.006;2023-02-05T18:48:50;49.13;;;24.42;;
46290;SDS011;32023;44.444;26.006;2023-02-05T19:00:27;37.70;;;17.98;;
46290;SDS011;32023;44.444;26.006;2023-02-05T19:02:56;30.90;;;17.70;;
46290;SDS011;32023;44.444;26.006;2023-02-05T19:08:24;42.85;;;21.60;;
46290;SDS011;32023;44.444;26.006;2023-02-05T19:11:31;47.53;;;22.40;;
46290;SDS011;32023;44.444;26.006;2023-02-05T19:14:13;45.88;;;23.38;;
46290;SDS011;32023;44.444;26.006;2023-02-05T19:20:21;51.53;;;24.35;;
46290;SDS011;32023;44.444;26.006;2023-02-05T19:22:56;49.75;;;26.13;;
46290;SDS011;32023;44.444;26.006;2023-02-05T19:28:29;50.88;;;26.63;;
46290;SDS011;32023;44.444;26.006;2023-02-05T19:31:06;45.20;;;24.30;;
46290;SDS011;32023;44.444;26.006;2023-02-05T19:33:34;45.78;;;24.75;;
46290;SDS011;32023;44.444;26.006;2023-02-05T19:36:04;52.38;;;25.88;;
46290;SDS011;32023;44.444;26.006;2023-02-05T19:42:06;54.55;;;24.25;;
46290;SDS011;32023;44.444;26.006;2023-02-05T19:47:03;50.75;;;25.60;;
46290;SDS011;32023;44.444;26.006;2023-02-05T19:49:39;47.35;;;22.92;;
46290;SDS011;32023;44.444;26.006;2023-02-05T19:52:08;45.65;;;21.70;;
46290;SDS011;32023;44.444;26.006;2023-02-05T19:57:17;39.75;;;20.35;;
46290;SDS011;32023;44.444;26.006;2023-02-05T20:00:00;38.33;;;19.88;;
46290;SDS011;32023;44.444;26.006;2023-02-05T20:02:27;35.92;;;18.88;;
46290;SDS011;32023;44.444;26.006;2023-02-05T20:05:14;36.63;;;18.30;;
46290;SDS011;32023;44.444;26.006;2023-02-05T20:07:40;35.00;;;18.67;;
46290;SDS011;32023;44.444;26.006;2023-02-05T20:10:14;36.67;;;18.70;;
46290;SDS011;32023;44.444;26.006;2023-02-05T20:12:46;31.83;;;16.90;;
46290;SDS011;32023;44.444;26.006;2023-02-05T20:18:11;31.43;;;15.20;;
46290;SDS011;32023;44.444;26.006;2023-02-05T20:20:41;36.33;;;18.77;;
46290;SDS011;32023;44.444;26.006;2023-02-05T20:23:10;38.93;;;21.47;;
46290;SDS011;32023;44.444;26.006;2023-02-05T20:25:56;63.77;;;30.20;;
46290;SDS011;32023;44.444;26.006;2023-02-05T20:28:28;67.13;;;35.40;;
46290;SDS011;32023;44.444;26.006;2023-02-05T20:31:23;65.00;;;34.40;;
46290;SDS011;32023;44.444;26.006;2023-02-05T20:37:14;34.33;;;19.47;;
46290;SDS011;32023;44.444;26.006;2023-02-05T20:39:44;34.83;;;18.88;;
46290;SDS011;32023;44.444;26.006;2023-02-05T20:48:37;30.40;;;16.35;;
46290;SDS011;32023;44.444;26.006;2023-02-05T20:51:14;27.23;;;15.02;;
46290;SDS011;32023;44.444;26.006;2023-02-05T20:56:30;26.23;;;14.07;;
46290;SDS011;32023;44.444;26.006;2023-02-05T20:59:03;29.33;;;15.43;;
46290;SDS011;32023;44.444;26.006;2023-02-05T21:01:49;27.80;;;15.02;;
46290;SDS011;32023;44.444;26.006;2023-02-05T21:07:43;28.52;;;14.50;;
46290;SDS011;32023;44.444;26.006;2023-02-05T21:10:12;28.67;;;15.27;;
46290;SDS011;32023;44.444;26.006;2023-02-05T21:12:43;25.23;;;12.82;;
46290;SDS011;32023;44.444;26.006;2023-02-05T21:17:49;26.27;;;14.80;;
46290;SDS011;32023;44.444;26.006;2023-02-05T21:20:33;25.42;;;13.15;;
46290;SDS011;32023;44.444;26.006;2023-02-05T21:29:43;25.33;;;14.65;;
46290;SDS011;32023;44.444;26.006;2023-02-05T21:35:07;30.95;;;15.23;;
46290;SDS011;32023;44.444;26.006;2023-02-05T21:37:37;28.88;;;14.65;;